sensor_id;sensor_type;location;lat;lon;timestamp;P1;durP1;ratioP1;P2;durP2;ratioP2
32445;SDS011;18899;50.748;7.102;2023-09-19T00:01:33;2.90;;;1.40;;
32445;SDS011;18899;50.748;7.102;2023-09-19T00:03:59;6.35;;;1.20;;
32445;SDS011;18899;50.748;7.102;2023-09-19T00:06:27;3.25;;;1.25;;
32445;SDS011;18899;50.748;7.102;2023-09-19T00:08:56;6.95;;;1.50;;
32445;SDS011;18899;50.748;7.102;2023-09-19T00:11:23;4.82;;;1.35;;
32445;SDS011;18899;50.748;7.102;2023-09-19T00:13:51;7.40;;;1.40;;
32445;SDS011;18899;50.748;7.102;2023-09-19T00:16:18;8.65;;;1.35;;
32445;SDS011;18899;50.748;7.102;2023-09-19T00:18:44;2.47;;;1.30;;
32445;SDS011;18899;50.748;7.102;2023-09-19T00:21:10;6.25;;;1.33;;
32445;SDS011;18899;50.748;7.102;2023-09-19T00:23:35;4.25;;;1.40;;
32445;SDS011;18899;50.748;7.102;2023-09-19T00:26:01;5.03;;;1.33;;
32445;SDS011;18899;50.748;7.102;2023-09-19T00:28:28;6.60;;;1.45;;
32445;SDS011;18899;50.748;7.102;2023-09-19T00:30:54;6.10;;;1.70;;
32445;SDS011;18899;50.748;7.102;2023-09-19T00:33:20;2.83;;;1.42;;
32445;SDS011;18899;50.748;7.102;2023-09-19T00:35:50;4.63;;;1.27;;
32445;SDS011;18899;50.748;7.102;2023-09-19T00:38:16;3.63;;;1.23;;
32445;SDS011;18899;50.748;7.102;2023-09-19T00:40:45;7.70;;;1.40;;
32445;SDS011;18899;50.748;7.102;2023-09-19T00:43:11;6.32;;;1.15;;
32445;SDS011;18899;50.748;7.102;2023-09-19T00:45:36;4.90;;;0.90;;
32445;SDS011;18899;50.748;7.102;2023-09-19T00:48:07;4.75;;;1.48;;
32445;SDS011;18899;50.748;7.102;2023-09-19T00:50:34;2.03;;;1.13;;
32445;SDS011;18899;50.748;7.102;2023-09-19T00:53:01;4.50;;;1.38;;
32445;SDS011;18899;50.748;7.102;2023-09-19T00:55:34;9.20;;;1.65;;
32445;SDS011;18899;50.748;7.102;2023-09-19T00:58:02;6.78;;;1.20;;
32445;SDS011;18899;50.748;7.102;2023-09-19T01:00:28;7.30;;;1.77;;
32445;SDS011;18899;50.748;7.102;2023-09-19T01:02:54;4.15;;;1.38;;
32445;SDS011;18899;50.748;7.102;2023-09-19T01:05:19;9.52;;;1.60;;
32445;SDS011;18899;50.748;7.102;2023-09-19T01:07:45;4.25;;;1.45;;
32445;SDS011;18899;50.748;7.102;2023-09-19T01:10:15;4.97;;;1.52;;
32445;SDS011;18899;50.748;7.102;2023-09-19T01:12:45;5.95;;;1.50;;
32445;SDS011;18899;50.748;7.102;2023-09-19T01:18:01;4.07;;;1.15;;
32445;SDS011;18899;50.748;7.102;2023-09-19T01:29:36;7.25;;;1.45;;
32445;SDS011;18899;50.748;7.102;2023-09-19T01:32:04;3.90;;;1.30;;
32445;SDS011;18899;50.748;7.102;2023-09-19T01:34:44;10.02;;;1.67;;
32445;SDS011;18899;50.748;7.102;2023-09-19T01:37:12;9.85;;;1.45;;
32445;SDS011;18899;50.748;7.102;2023-09-19T01:39:39;6.00;;;1.45;;
32445;SDS011;18899;50.748;7.102;2023-09-19T01:42:09;9.15;;;1.80;;
32445;SDS011;18899;50.748;7.102;2023-09-19T01:44:50;6.18;;;1.35;;
32445;SDS011;18899;50.748;7.102;2023-09-19T01:50:29;5.55;;;1.42;;
32445;SDS011;18899;50.748;7.102;2023-09-19T01:53:05;14.15;;;1.98;;
32445;SDS011;18899;50.748;7.102;2023-09-19T01:55:41;6.57;;;1.70;;
32445;SDS011;18899;50.748;7.102;2023-09-19T01:58:16;3.92;;;0.85;;
32445;SDS011;18899;50.748;7.102;2023-09-19T02:00:47;6.47;;;1.30;;
32445;SDS011;18899;50.748;7.102;2023-09-19T02:03:16;8.38;;;1.35;;
32445;SDS011;18899;50.748;7.102;2023-09-19T02:05:47;3.97;;;1.30;;
32445;SDS011;18899;50.748;7.102;2023-09-19T02:08:18;5.78;;;1.30;;
32445;SDS011;18899;50.748;7.102;2023-09-19T02:10:45;4.90;;;1.40;;
32445;SDS011;18899;50.748;7.102;2023-09-19T02:13:17;7.60;;;1.60;;
32445;SDS011;18899;50.748;7.102;2023-09-19T02:15:44;5.28;;;1.85;;
32445;SDS011;18899;50.748;7.102;2023-09-19T02:18:11;4.13;;;1.38;;
32445;SDS011;18899;50.748;7.102;2023-09-19T02:20:37;12.13;;;2.05;;
32445;SDS011;18899;50.748;7.102;2023-09-19T02:23:03;7.85;;;1.92;;
32445;SDS011;18899;50.748;7.102;2023-09-19T02:25:28;6.82;;;1.40;;
32445;SDS011;18899;50.748;7.102;2023-09-19T02:27:56;12.48;;;1.52;;
32445;SDS011;18899;50.748;7.102;2023-09-19T02:30:23;10.48;;;1.63;;
32445;SDS011;18899;50.748;7.102;2023-09-19T02:32:50;17.77;;;2.08;;
32445;SDS011;18899;50.748;7.102;2023-09-19T02:35:16;9.68;;;2.08;;
32445;SDS011;18899;50.748;7.102;2023-09-19T02:37:44;9.35;;;1.90;;
32445;SDS011;18899;50.748;7.102;2023-09-19T02:40:10;15.88;;;2.08;;
32445;SDS011;18899;50.748;7.102;2023-09-19T02:42:47;8.15;;;1.95;;
32445;SDS011;18899;50.748;7.102;2023-09-19T02:45:15;6.78;;;1.40;;
32445;SDS011;18899;50.748;7.102;2023-09-19T02:47:43;9.70;;;1.98;;
32445;SDS011;18899;50.748;7.102;2023-09-19T02:50:09;10.18;;;1.95;;
32445;SDS011;18899;50.748;7.102;2023-09-19T02:52:36;14.43;;;2.13;;
32445;SDS011;18899;50.748;7.102;2023-09-19T02:55:02;13.27;;;2.83;;
32445;SDS011;18899;50.748;7.102;2023-09-19T02:57:29;12.25;;;2.40;;
32445;SDS011;18899;50.748;7.102;2023-09-19T02:59:56;11.57;;;2.10;;
32445;SDS011;18899;50.748;7.102;2023-09-19T03:02:21;12.05;;;2.22;;
32445;SDS011;18899;50.748;7.102;2023-09-19T03:04:49;18.30;;;3.10;;
32445;SDS011;18899;50.748;7.102;2023-09-19T03:07:16;8.93;;;1.92;;
32445;SDS011;18899;50.748;7.102;2023-09-19T03:09:42;8.90;;;2.00;;
32445;SDS011;18899;50.748;7.102;2023-09-19T03:12:08;15.68;;;2.47;;
32445;SDS011;18899;50.748;7.102;2023-09-19T03:14:33;14.75;;;1.98;;
32445;SDS011;18899;50.748;7.102;2023-09-19T03:17:00;10.57;;;1.90;;
32445;SDS011;18899;50.748;7.102;2023-09-19T03:19:26;11.70;;;2.05;;
32445;SDS011;18899;50.748;7.102;2023-09-19T03:21:52;11.25;;;1.73;;
32445;SDS011;18899;50.748;7.102;2023-09-19T03:24:18;11.30;;;2.00;;
32445;SDS011;18899;50.748;7.102;2023-09-19T03:26:44;10.70;;;2.15;;
32445;SDS011;18899;50.748;7.102;2023-09-19T03:29:10;9.77;;;2.22;;
32445;SDS011;18899;50.748;7.102;2023-09-19T03:31:36;10.00;;;1.95;;
32445;SDS011;18899;50.748;7.102;2023-09-19T03:34:02;14.75;;;2.22;;
32445;SDS011;18899;50.748;7.102;2023-09-19T03:36:29;8.40;;;1.90;;
32445;SDS011;18899;50.748;7.102;2023-09-19T03:38:54;14.65;;;2.10;;
32445;SDS011;18899;50.748;7.102;2023-09-19T03:41:20;11.20;;;1.90;;
32445;SDS011;18899;50.748;7.102;2023-09-19T03:43:46;18.85;;;2.30;;
32445;SDS011;18899;50.748;7.102;2023-09-19T03:46:11;11.50;;;2.72;;
32445;SDS011;18899;50.748;7.102;2023-09-19T03:48:40;12.57;;;1.63;;
32445;SDS011;18899;50.748;7.102;2023-09-19T03:51:05;10.25;;;2.05;;
32445;SDS011;18899;50.748;7.102;2023-09-19T03:53:31;10.45;;;1.80;;
32445;SDS011;18899;50.748;7.102;2023-09-19T03:55:57;10.23;;;2.05;;
32445;SDS011;18899;50.748;7.102;2023-09-19T03:58:22;10.93;;;2.03;;
32445;SDS011;18899;50.748;7.102;2023-09-19T04:00:48;17.70;;;2.03;;
32445;SDS011;18899;50.748;7.102;2023-09-19T04:03:15;12.65;;;2.50;;
32445;SDS011;18899;50.748;7.102;2023-09-19T04:05:45;17.17;;;2.33;;
32445;SDS011;18899;50.748;7.102;2023-09-19T04:08:14;16.52;;;2.20;;
32445;SDS011;18899;50.748;7.102;2023-09-19T04:10:41;10.55;;;2.15;;
32445;SDS011;18899;50.748;7.102;2023-09-19T04:13:08;10.02;;;1.70;;
32445;SDS011;18899;50.748;7.102;2023-09-19T04:15:34;11.60;;;2.13;;
32445;SDS011;18899;50.748;7.102;2023-09-19T04:17:59;12.40;;;2.28;;
32445;SDS011;18899;50.748;7.102;2023-09-19T04:20:25;7.90;;;2.45;;
32445;SDS011;18899;50.748;7.102;2023-09-19T04:22:50;15.68;;;2.53;;
32445;SDS011;18899;50.748;7.102;2023-09-19T04:25:16;10.25;;;1.95;;
32445;SDS011;18899;50.748;7.102;2023-09-19T04:27:43;14.02;;;2.40;;
32445;SDS011;18899;50.748;7.102;2023-09-19T04:30:09;14.20;;;2.35;;
32445;SDS011;18899;50.748;7.102;2023-09-19T04:32:36;13.60;;;2.90;;
32445;SDS011;18899;50.748;7.102;2023-09-19T04:35:09;10.27;;;2.38;;
32445;SDS011;18899;50.748;7.102;2023-09-19T04:37:38;13.02;;;2.08;;
32445;SDS011;18899;50.748;7.102;2023-09-19T04:40:06;15.50;;;3.10;;
32445;SDS011;18899;50.748;7.102;2023-09-19T04:42:37;14.18;;;3.08;;
32445;SDS011;18899;50.748;7.102;2023-09-19T04:45:03;12.18;;;2.92;;
32445;SDS011;18899;50.748;7.102;2023-09-19T04:47:30;11.05;;;2.10;;
32445;SDS011;18899;50.748;7.102;2023-09-19T04:49:55;8.00;;;1.77;;
32445;SDS011;18899;50.748;7.102;2023-09-19T04:52:23;15.93;;;2.50;;
32445;SDS011;18899;50.748;7.102;2023-09-19T04:54:48;11.25;;;2.05;;
32445;SDS011;18899;50.748;7.102;2023-09-19T04:57:14;9.27;;;2.22;;
32445;SDS011;18899;50.748;7.102;2023-09-19T04:59:40;13.40;;;2.33;;
32445;SDS011;18899;50.748;7.102;2023-09-19T05:02:06;7.07;;;1.83;;
32445;SDS011;18899;50.748;7.102;2023-09-19T05:04:33;15.35;;;2.28;;
32445;SDS011;18899;50.748;7.102;2023-09-19T05:06:59;12.30;;;2.15;;
32445;SDS011;18899;50.748;7.102;2023-09-19T05:09:26;13.07;;;2.10;;
32445;SDS011;18899;50.748;7.102;2023-09-19T05:11:51;10.52;;;2.50;;
32445;SDS011;18899;50.748;7.102;2023-09-19T05:14:18;10.30;;;2.10;;
32445;SDS011;18899;50.748;7.102;2023-09-19T05:16:44;16.05;;;2.28;;
32445;SDS011;18899;50.748;7.102;2023-09-19T05:19:09;11.45;;;2.08;;
32445;SDS011;18899;50.748;7.102;2023-09-19T05:21:37;11.15;;;2.15;;
32445;SDS011;18899;50.748;7.102;2023-09-19T05:24:04;11.88;;;2.10;;
32445;SDS011;18899;50.748;7.102;2023-09-19T05:26:31;13.25;;;2.40;;
32445;SDS011;18899;50.748;7.102;2023-09-19T05:28:57;10.43;;;2.58;;
32445;SDS011;18899;50.748;7.102;2023-09-19T05:31:22;9.30;;;2.05;;
32445;SDS011;18899;50.748;7.102;2023-09-19T05:33:49;14.27;;;2.67;;
32445;SDS011;18899;50.748;7.102;2023-09-19T05:36:15;12.10;;;2.20;;
32445;SDS011;18899;50.748;7.102;2023-09-19T05:38:40;15.05;;;2.47;;
32445;SDS011;18899;50.748;7.102;2023-09-19T05:41:07;11.90;;;2.03;;
32445;SDS011;18899;50.748;7.102;2023-09-19T05:43:34;12.55;;;2.03;;
32445;SDS011;18899;50.748;7.102;2023-09-19T05:46:02;10.88;;;2.38;;
32445;SDS011;18899;50.748;7.102;2023-09-19T05:48:28;15.60;;;2.03;;
32445;SDS011;18899;50.748;7.102;2023-09-19T05:50:53;17.08;;;2.42;;
32445;SDS011;18899;50.748;7.102;2023-09-19T05:53:19;13.90;;;2.13;;
32445;SDS011;18899;50.748;7.102;2023-09-19T05:55:45;11.98;;;2.63;;
32445;SDS011;18899;50.748;7.102;2023-09-19T05:58:11;11.73;;;2.05;;
32445;SDS011;18899;50.748;7.102;2023-09-19T06:00:39;19.58;;;2.88;;
32445;SDS011;18899;50.748;7.102;2023-09-19T06:03:07;5.95;;;1.70;;
32445;SDS011;18899;50.748;7.102;2023-09-19T06:05:33;11.93;;;2.00;;
32445;SDS011;18899;50.748;7.102;2023-09-19T06:07:59;11.80;;;2.83;;
32445;SDS011;18899;50.748;7.102;2023-09-19T06:10:25;11.35;;;1.90;;
32445;SDS011;18899;50.748;7.102;2023-09-19T06:12:53;17.50;;;2.33;;
32445;SDS011;18899;50.748;7.102;2023-09-19T06:15:20;10.85;;;2.85;;
32445;SDS011;18899;50.748;7.102;2023-09-19T06:17:48;9.73;;;1.60;;
32445;SDS011;18899;50.748;7.102;2023-09-19T06:20:15;14.82;;;2.45;;
32445;SDS011;18899;50.748;7.102;2023-09-19T06:22:42;13.95;;;2.75;;
32445;SDS011;18899;50.748;7.102;2023-09-19T06:25:12;13.52;;;2.50;;
32445;SDS011;18899;50.748;7.102;2023-09-19T06:27:47;14.18;;;2.10;;
32445;SDS011;18899;50.748;7.102;2023-09-19T06:30:17;8.93;;;2.10;;
32445;SDS011;18899;50.748;7.102;2023-09-19T06:32:43;11.70;;;1.83;;
32445;SDS011;18899;50.748;7.102;2023-09-19T06:35:09;9.88;;;2.22;;
32445;SDS011;18899;50.748;7.102;2023-09-19T06:37:36;13.77;;;2.20;;
32445;SDS011;18899;50.748;7.102;2023-09-19T06:42:42;9.07;;;2.10;;
32445;SDS011;18899;50.748;7.102;2023-09-19T06:45:11;14.10;;;1.80;;
32445;SDS011;18899;50.748;7.102;2023-09-19T06:47:38;10.75;;;1.98;;
32445;SDS011;18899;50.748;7.102;2023-09-19T06:50:04;12.20;;;1.92;;
32445;SDS011;18899;50.748;7.102;2023-09-19T06:52:31;11.98;;;2.45;;
32445;SDS011;18899;50.748;7.102;2023-09-19T06:54:58;12.65;;;2.22;;
32445;SDS011;18899;50.748;7.102;2023-09-19T06:57:23;13.75;;;2.63;;
32445;SDS011;18899;50.748;7.102;2023-09-19T06:59:49;13.68;;;2.10;;
32445;SDS011;18899;50.748;7.102;2023-09-19T07:02:15;12.38;;;2.72;;
32445;SDS011;18899;50.748;7.102;2023-09-19T07:04:40;11.23;;;2.33;;
32445;SDS011;18899;50.748;7.102;2023-09-19T07:07:06;10.20;;;2.20;;
32445;SDS011;18899;50.748;7.102;2023-09-19T07:09:33;14.02;;;2.60;;
32445;SDS011;18899;50.748;7.102;2023-09-19T07:11:59;16.13;;;2.20;;
32445;SDS011;18899;50.748;7.102;2023-09-19T07:14:25;15.45;;;2.95;;
32445;SDS011;18899;50.748;7.102;2023-09-19T07:16:51;10.73;;;2.03;;
32445;SDS011;18899;50.748;7.102;2023-09-19T07:19:17;16.70;;;2.63;;
32445;SDS011;18899;50.748;7.102;2023-09-19T07:21:43;15.35;;;2.50;;
32445;SDS011;18899;50.748;7.102;2023-09-19T07:24:08;8.90;;;1.80;;
32445;SDS011;18899;50.748;7.102;2023-09-19T07:26:34;15.38;;;3.00;;
32445;SDS011;18899;50.748;7.102;2023-09-19T07:28:59;13.98;;;2.25;;
32445;SDS011;18899;50.748;7.102;2023-09-19T07:31:27;8.70;;;2.22;;
32445;SDS011;18899;50.748;7.102;2023-09-19T07:33:53;9.07;;;1.90;;
32445;SDS011;18899;50.748;7.102;2023-09-19T07:36:19;10.98;;;2.47;;
32445;SDS011;18899;50.748;7.102;2023-09-19T07:38:45;8.50;;;1.92;;
32445;SDS011;18899;50.748;7.102;2023-09-19T07:41:10;11.02;;;1.98;;
32445;SDS011;18899;50.748;7.102;2023-09-19T07:43:36;11.70;;;2.00;;
32445;SDS011;18899;50.748;7.102;2023-09-19T07:46:06;17.90;;;2.30;;
32445;SDS011;18899;50.748;7.102;2023-09-19T07:48:34;8.18;;;1.77;;
32445;SDS011;18899;50.748;7.102;2023-09-19T07:51:04;9.00;;;1.83;;
32445;SDS011;18899;50.748;7.102;2023-09-19T07:53:34;7.40;;;2.20;;
32445;SDS011;18899;50.748;7.102;2023-09-19T07:56:04;8.63;;;1.88;;
32445;SDS011;18899;50.748;7.102;2023-09-19T07:58:31;9.13;;;1.95;;
32445;SDS011;18899;50.748;7.102;2023-09-19T08:01:04;9.63;;;2.03;;
32445;SDS011;18899;50.748;7.102;2023-09-19T08:03:31;8.27;;;2.00;;
32445;SDS011;18899;50.748;7.102;2023-09-19T08:05:57;11.63;;;2.00;;
32445;SDS011;18899;50.748;7.102;2023-09-19T08:08:23;12.35;;;2.30;;
32445;SDS011;18899;50.748;7.102;2023-09-19T08:10:55;11.35;;;2.20;;
32445;SDS011;18899;50.748;7.102;2023-09-19T08:13:22;10.27;;;2.00;;
32445;SDS011;18899;50.748;7.102;2023-09-19T08:15:51;9.82;;;1.83;;
32445;SDS011;18899;50.748;7.102;2023-09-19T08:18:18;11.23;;;2.30;;
32445;SDS011;18899;50.748;7.102;2023-09-19T08:20:48;8.05;;;2.17;;
32445;SDS011;18899;50.748;7.102;2023-09-19T08:23:15;10.23;;;2.42;;
32445;SDS011;18899;50.748;7.102;2023-09-19T08:25:43;12.25;;;2.95;;
32445;SDS011;18899;50.748;7.102;2023-09-19T08:28:08;11.70;;;1.98;;
32445;SDS011;18899;50.748;7.102;2023-09-19T08:30:37;9.07;;;1.75;;
32445;SDS011;18899;50.748;7.102;2023-09-19T08:33:02;7.57;;;2.35;;
32445;SDS011;18899;50.748;7.102;2023-09-19T08:35:29;13.85;;;2.35;;
32445;SDS011;18899;50.748;7.102;2023-09-19T08:37:55;14.82;;;2.70;;
32445;SDS011;18899;50.748;7.102;2023-09-19T08:40:21;9.95;;;2.00;;
32445;SDS011;18899;50.748;7.102;2023-09-19T08:42:47;7.47;;;2.00;;
32445;SDS011;18899;50.748;7.102;2023-09-19T08:45:14;8.55;;;1.90;;
32445;SDS011;18899;50.748;7.102;2023-09-19T08:47:43;12.73;;;2.00;;
32445;SDS011;18899;50.748;7.102;2023-09-19T08:50:19;11.13;;;1.90;;
32445;SDS011;18899;50.748;7.102;2023-09-19T08:52:51;8.20;;;2.00;;
32445;SDS011;18899;50.748;7.102;2023-09-19T08:55:20;11.93;;;2.60;;
32445;SDS011;18899;50.748;7.102;2023-09-19T08:57:52;9.02;;;1.80;;
32445;SDS011;18899;50.748;7.102;2023-09-19T09:00:19;6.80;;;1.65;;
32445;SDS011;18899;50.748;7.102;2023-09-19T09:02:47;8.40;;;1.83;;
32445;SDS011;18899;50.748;7.102;2023-09-19T09:05:14;9.70;;;1.63;;
32445;SDS011;18899;50.748;7.102;2023-09-19T09:07:47;8.00;;;2.30;;
32445;SDS011;18899;50.748;7.102;2023-09-19T09:10:16;7.35;;;2.17;;
32445;SDS011;18899;50.748;7.102;2023-09-19T09:12:43;9.65;;;2.45;;
32445;SDS011;18899;50.748;7.102;2023-09-19T09:15:09;11.35;;;1.83;;
32445;SDS011;18899;50.748;7.102;2023-09-19T09:17:37;9.48;;;2.10;;
32445;SDS011;18899;50.748;7.102;2023-09-19T09:20:03;7.82;;;1.77;;
32445;SDS011;18899;50.748;7.102;2023-09-19T09:22:33;6.93;;;2.05;;
32445;SDS011;18899;50.748;7.102;2023-09-19T09:24:58;8.15;;;1.92;;
32445;SDS011;18899;50.748;7.102;2023-09-19T09:27:28;10.20;;;2.30;;
32445;SDS011;18899;50.748;7.102;2023-09-19T09:29:54;7.72;;;1.58;;
32445;SDS011;18899;50.748;7.102;2023-09-19T09:32:21;10.73;;;2.08;;
32445;SDS011;18899;50.748;7.102;2023-09-19T09:34:57;8.02;;;1.98;;
32445;SDS011;18899;50.748;7.102;2023-09-19T09:37:24;7.55;;;1.88;;
32445;SDS011;18899;50.748;7.102;2023-09-19T09:42:29;7.13;;;2.38;;
32445;SDS011;18899;50.748;7.102;2023-09-19T09:48:01;7.65;;;1.70;;
32445;SDS011;18899;50.748;7.102;2023-09-19T09:50:32;9.05;;;1.90;;
32445;SDS011;18899;50.748;7.102;2023-09-19T09:53:27;7.93;;;1.98;;
32445;SDS011;18899;50.748;7.102;2023-09-19T09:56:05;13.35;;;1.75;;
32445;SDS011;18899;50.748;7.102;2023-09-19T09:58:35;6.97;;;2.00;;
32445;SDS011;18899;50.748;7.102;2023-09-19T10:03:39;4.97;;;1.42;;
32445;SDS011;18899;50.748;7.102;2023-09-19T10:06:07;7.60;;;1.75;;
32445;SDS011;18899;50.748;7.102;2023-09-19T10:11:30;12.55;;;1.58;;
32445;SDS011;18899;50.748;7.102;2023-09-19T10:13:56;5.40;;;1.60;;
32445;SDS011;18899;50.748;7.102;2023-09-19T10:16:26;6.47;;;1.42;;
32445;SDS011;18899;50.748;7.102;2023-09-19T10:18:55;6.03;;;1.75;;
32445;SDS011;18899;50.748;7.102;2023-09-19T10:21:26;4.80;;;1.77;;
32445;SDS011;18899;50.748;7.102;2023-09-19T10:23:55;5.40;;;1.65;;
32445;SDS011;18899;50.748;7.102;2023-09-19T10:26:28;5.30;;;1.50;;
32445;SDS011;18899;50.748;7.102;2023-09-19T10:28:56;3.58;;;1.40;;
32445;SDS011;18899;50.748;7.102;2023-09-19T10:31:27;8.80;;;2.08;;
32445;SDS011;18899;50.748;7.102;2023-09-19T10:33:53;6.47;;;1.50;;
32445;SDS011;18899;50.748;7.102;2023-09-19T10:36:21;5.63;;;1.80;;
32445;SDS011;18899;50.748;7.102;2023-09-19T10:38:52;9.18;;;2.78;;
32445;SDS011;18899;50.748;7.102;2023-09-19T10:41:22;7.38;;;1.60;;
32445;SDS011;18899;50.748;7.102;2023-09-19T10:43:49;7.75;;;1.52;;
32445;SDS011;18899;50.748;7.102;2023-09-19T10:46:19;5.93;;;1.80;;
32445;SDS011;18899;50.748;7.102;2023-09-19T10:48:45;6.20;;;1.38;;
32445;SDS011;18899;50.748;7.102;2023-09-19T10:51:17;8.98;;;1.63;;
32445;SDS011;18899;50.748;7.102;2023-09-19T10:53:50;7.80;;;1.75;;
32445;SDS011;18899;50.748;7.102;2023-09-19T10:56:26;5.97;;;1.70;;
32445;SDS011;18899;50.748;7.102;2023-09-19T10:59:06;7.63;;;1.55;;
32445;SDS011;18899;50.748;7.102;2023-09-19T11:01:44;6.25;;;1.58;;
32445;SDS011;18899;50.748;7.102;2023-09-19T11:04:54;7.13;;;1.52;;
32445;SDS011;18899;50.748;7.102;2023-09-19T11:07:01;6.35;;;1.80;;
32445;SDS011;18899;50.748;7.102;2023-09-19T11:09:52;9.45;;;1.70;;
32445;SDS011;18899;50.748;7.102;2023-09-19T11:26:49;8.00;;;2.10;;
32445;SDS011;18899;50.748;7.102;2023-09-19T11:29:24;9.25;;;1.77;;
32445;SDS011;18899;50.748;7.102;2023-09-19T11:31:54;6.75;;;1.65;;
32445;SDS011;18899;50.748;7.102;2023-09-19T11:39:39;5.13;;;1.90;;
32445;SDS011;18899;50.748;7.102;2023-09-19T11:42:43;9.18;;;2.00;;
32445;SDS011;18899;50.748;7.102;2023-09-19T11:48:15;10.48;;;2.13;;
32445;SDS011;18899;50.748;7.102;2023-09-19T11:50:43;9.05;;;1.80;;
32445;SDS011;18899;50.748;7.102;2023-09-19T11:53:13;4.97;;;1.40;;
32445;SDS011;18899;50.748;7.102;2023-09-19T11:55:42;6.07;;;1.70;;
32445;SDS011;18899;50.748;7.102;2023-09-19T11:58:08;5.93;;;2.00;;
32445;SDS011;18899;50.748;7.102;2023-09-19T12:00:34;11.07;;;1.88;;
32445;SDS011;18899;50.748;7.102;2023-09-19T12:03:06;6.47;;;1.70;;
32445;SDS011;18899;50.748;7.102;2023-09-19T12:05:34;8.23;;;1.92;;
32445;SDS011;18899;50.748;7.102;2023-09-19T12:08:00;4.68;;;1.30;;
32445;SDS011;18899;50.748;7.102;2023-09-19T12:10:26;10.18;;;1.38;;
32445;SDS011;18899;50.748;7.102;2023-09-19T12:12:52;8.48;;;1.83;;
32445;SDS011;18899;50.748;7.102;2023-09-19T12:15:24;6.32;;;1.48;;
32445;SDS011;18899;50.748;7.102;2023-09-19T12:17:59;4.97;;;1.67;;
32445;SDS011;18899;50.748;7.102;2023-09-19T12:20:25;8.07;;;1.70;;
32445;SDS011;18899;50.748;7.102;2023-09-19T12:23:15;8.25;;;1.85;;
32445;SDS011;18899;50.748;7.102;2023-09-19T12:25:41;6.45;;;1.65;;
32445;SDS011;18899;50.748;7.102;2023-09-19T12:28:11;13.20;;;2.25;;
32445;SDS011;18899;50.748;7.102;2023-09-19T12:30:37;13.27;;;1.80;;
32445;SDS011;18899;50.748;7.102;2023-09-19T12:33:04;8.25;;;1.80;;
32445;SDS011;18899;50.748;7.102;2023-09-19T12:35:32;5.85;;;1.70;;
32445;SDS011;18899;50.748;7.102;2023-09-19T12:38:02;7.43;;;1.42;;
32445;SDS011;18899;50.748;7.102;2023-09-19T12:40:28;9.98;;;1.77;;
32445;SDS011;18899;50.748;7.102;2023-09-19T12:42:58;14.55;;;2.10;;
32445;SDS011;18899;50.748;7.102;2023-09-19T12:45:24;9.93;;;1.83;;
32445;SDS011;18899;50.748;7.102;2023-09-19T12:51:05;4.97;;;1.75;;
32445;SDS011;18899;50.748;7.102;2023-09-19T12:53:44;8.23;;;1.88;;
32445;SDS011;18899;50.748;7.102;2023-09-19T12:56:13;4.43;;;1.55;;
32445;SDS011;18899;50.748;7.102;2023-09-19T12:58:53;8.00;;;2.00;;
32445;SDS011;18899;50.748;7.102;2023-09-19T13:01:20;8.45;;;2.22;;
32445;SDS011;18899;50.748;7.102;2023-09-19T13:04:09;5.10;;;1.33;;
32445;SDS011;18899;50.748;7.102;2023-09-19T13:06:44;6.35;;;1.40;;
32445;SDS011;18899;50.748;7.102;2023-09-19T13:09:14;6.07;;;1.70;;
32445;SDS011;18899;50.748;7.102;2023-09-19T13:11:41;5.53;;;1.42;;
32445;SDS011;18899;50.748;7.102;2023-09-19T13:16:56;8.15;;;1.30;;
32445;SDS011;18899;50.748;7.102;2023-09-19T13:19:44;9.80;;;1.40;;
32445;SDS011;18899;50.748;7.102;2023-09-19T13:25:10;5.70;;;1.08;;
32445;SDS011;18899;50.748;7.102;2023-09-19T13:27:43;6.25;;;1.40;;
32445;SDS011;18899;50.748;7.102;2023-09-19T13:30:09;5.18;;;1.00;;
32445;SDS011;18899;50.748;7.102;2023-09-19T13:32:36;5.53;;;1.38;;
32445;SDS011;18899;50.748;7.102;2023-09-19T13:35:02;6.35;;;1.27;;
32445;SDS011;18899;50.748;7.102;2023-09-19T13:37:30;6.90;;;1.58;;
32445;SDS011;18899;50.748;7.102;2023-09-19T13:39:56;7.40;;;1.42;;
32445;SDS011;18899;50.748;7.102;2023-09-19T13:42:23;6.35;;;0.90;;
32445;SDS011;18899;50.748;7.102;2023-09-19T13:44:50;6.53;;;1.60;;
32445;SDS011;18899;50.748;7.102;2023-09-19T13:47:16;6.25;;;1.48;;
32445;SDS011;18899;50.748;7.102;2023-09-19T13:49:41;2.53;;;0.80;;
32445;SDS011;18899;50.748;7.102;2023-09-19T13:52:08;4.10;;;1.40;;
32445;SDS011;18899;50.748;7.102;2023-09-19T13:54:34;5.75;;;1.38;;
32445;SDS011;18899;50.748;7.102;2023-09-19T13:56:59;7.00;;;1.20;;
32445;SDS011;18899;50.748;7.102;2023-09-19T13:59:25;3.50;;;0.90;;
32445;SDS011;18899;50.748;7.102;2023-09-19T14:01:53;4.28;;;1.02;;
32445;SDS011;18899;50.748;7.102;2023-09-19T14:04:19;7.65;;;1.50;;
32445;SDS011;18899;50.748;7.102;2023-09-19T14:06:46;4.18;;;1.13;;
32445;SDS011;18899;50.748;7.102;2023-09-19T14:09:12;4.68;;;1.25;;
32445;SDS011;18899;50.748;7.102;2023-09-19T14:11:38;5.43;;;1.70;;
32445;SDS011;18899;50.748;7.102;2023-09-19T14:14:04;3.95;;;1.20;;
32445;SDS011;18899;50.748;7.102;2023-09-19T14:16:30;7.30;;;1.25;;
32445;SDS011;18899;50.748;7.102;2023-09-19T14:18:56;5.60;;;0.88;;
32445;SDS011;18899;50.748;7.102;2023-09-19T14:21:23;12.45;;;1.45;;
32445;SDS011;18899;50.748;7.102;2023-09-19T14:23:48;6.57;;;0.98;;
32445;SDS011;18899;50.748;7.102;2023-09-19T14:26:14;4.15;;;1.77;;
32445;SDS011;18899;50.748;7.102;2023-09-19T14:28:43;4.22;;;1.00;;
32445;SDS011;18899;50.748;7.102;2023-09-19T14:31:10;4.38;;;1.00;;
32445;SDS011;18899;50.748;7.102;2023-09-19T14:33:36;3.60;;;0.98;;
32445;SDS011;18899;50.748;7.102;2023-09-19T14:36:06;7.07;;;1.20;;
32445;SDS011;18899;50.748;7.102;2023-09-19T14:41:03;3.67;;;1.13;;
32445;SDS011;18899;50.748;7.102;2023-09-19T14:43:31;4.45;;;1.40;;
32445;SDS011;18899;50.748;7.102;2023-09-19T14:46:02;4.30;;;1.00;;
32445;SDS011;18899;50.748;7.102;2023-09-19T14:48:28;9.48;;;1.50;;
32445;SDS011;18899;50.748;7.102;2023-09-19T14:50:54;7.03;;;1.25;;
32445;SDS011;18899;50.748;7.102;2023-09-19T14:53:20;5.38;;;1.20;;
32445;SDS011;18899;50.748;7.102;2023-09-19T14:55:46;3.58;;;1.08;;
32445;SDS011;18899;50.748;7.102;2023-09-19T14:58:13;4.40;;;1.08;;
32445;SDS011;18899;50.748;7.102;2023-09-19T15:00:38;5.43;;;1.30;;
32445;SDS011;18899;50.748;7.102;2023-09-19T15:03:04;7.15;;;1.50;;
32445;SDS011;18899;50.748;7.102;2023-09-19T15:05:30;4.07;;;1.05;;
32445;SDS011;18899;50.748;7.102;2023-09-19T15:07:56;5.07;;;1.10;;
32445;SDS011;18899;50.748;7.102;2023-09-19T15:10:23;2.33;;;0.88;;
32445;SDS011;18899;50.748;7.102;2023-09-19T15:12:49;5.78;;;0.82;;
32445;SDS011;18899;50.748;7.102;2023-09-19T15:15:15;3.72;;;1.13;;
32445;SDS011;18899;50.748;7.102;2023-09-19T15:17:41;6.18;;;0.80;;
32445;SDS011;18899;50.748;7.102;2023-09-19T15:20:07;5.05;;;1.00;;
32445;SDS011;18899;50.748;7.102;2023-09-19T15:22:33;3.85;;;1.08;;
32445;SDS011;18899;50.748;7.102;2023-09-19T15:24:59;5.55;;;0.95;;
32445;SDS011;18899;50.748;7.102;2023-09-19T15:27:27;4.95;;;1.25;;
32445;SDS011;18899;50.748;7.102;2023-09-19T15:30:01;6.07;;;1.40;;
32445;SDS011;18899;50.748;7.102;2023-09-19T15:32:27;5.88;;;1.20;;
32445;SDS011;18899;50.748;7.102;2023-09-19T15:34:54;5.55;;;1.20;;
32445;SDS011;18899;50.748;7.102;2023-09-19T15:37:20;4.43;;;1.15;;
32445;SDS011;18899;50.748;7.102;2023-09-19T15:39:45;4.35;;;1.05;;
32445;SDS011;18899;50.748;7.102;2023-09-19T15:42:12;5.78;;;1.40;;
32445;SDS011;18899;50.748;7.102;2023-09-19T15:44:37;4.25;;;1.10;;
32445;SDS011;18899;50.748;7.102;2023-09-19T15:47:03;2.05;;;0.80;;
32445;SDS011;18899;50.748;7.102;2023-09-19T15:49:29;6.88;;;0.98;;
32445;SDS011;18899;50.748;7.102;2023-09-19T15:51:54;3.90;;;1.42;;